createdAt,value
2023-05-18T00:00:41.059Z,8.588
2023-05-18T00:01:43.176Z,8.606
2023-05-18T00:02:40.352Z,8.609
2023-05-18T00:03:40.575Z,8.590
2023-05-18T00:04:40.553Z,8.556
2023-05-18T00:05:40.874Z,8.563
2023-05-18T00:06:40.801Z,8.583
2023-05-18T00:07:40.712Z,8.596
2023-05-18T00:08:40.429Z,8.613
2023-05-18T00:09:40.243Z,8.604
2023-05-18T00:10:40.289Z,8.583
2023-05-18T00:11:40.005Z,8.564
2023-05-18T00:12:39.872Z,8.545
2023-05-18T00:13:40.283Z,8.529
2023-05-18T00:14:40.033Z,8.465
2023-05-18T00:15:40.130Z,8.441
2023-05-18T00:16:40.402Z,8.403
2023-05-18T00:17:40.556Z,8.376
2023-05-18T00:18:40.519Z,8.352
2023-05-18T00:19:41.682Z,8.340
2023-05-18T00:20:40.956Z,8.374
2023-05-18T00:21:40.851Z,8.380
2023-05-18T00:22:40.899Z,8.314
2023-05-18T00:23:40.666Z,8.295
2023-05-18T00:24:40.768Z,8.267
2023-05-18T00:25:40.628Z,8.307
2023-05-18T00:26:40.512Z,8.300
2023-05-18T00:27:40.206Z,8.272
2023-05-18T00:28:39.759Z,8.234
2023-05-18T00:29:40.608Z,8.213
2023-05-18T00:30:40.642Z,8.204
2023-05-18T00:31:40.199Z,8.188
2023-05-18T00:32:40.200Z,8.175
2023-05-18T00:33:39.877Z,8.161
2023-05-18T00:34:40.428Z,8.126
2023-05-18T00:35:39.945Z,8.123
2023-05-18T00:36:40.587Z,8.102
2023-05-18T00:37:40.025Z,8.102
2023-05-18T00:38:40.106Z,8.103
2023-05-18T00:39:40.804Z,8.104
2023-05-18T00:40:40.787Z,8.109
2023-05-18T00:41:40.130Z,8.113
2023-05-18T00:42:40.122Z,8.085
2023-05-18T00:43:40.337Z,8.086
2023-05-18T00:44:40.477Z,8.064
2023-05-18T00:45:40.362Z,8.046
2023-05-18T00:46:40.197Z,8.023
2023-05-18T00:47:40.093Z,7.974
2023-05-18T00:48:39.976Z,7.965
2023-05-18T00:49:40.962Z,7.954
2023-05-18T00:50:40.792Z,7.976
2023-05-18T00:51:40.507Z,7.983
2023-05-18T00:52:40.534Z,7.961
2023-05-18T00:53:42.117Z,7.958
2023-05-18T00:54:40.443Z,7.976
2023-05-18T00:55:40.727Z,8.008
2023-05-18T00:56:40.750Z,8.024
2023-05-18T00:57:40.349Z,8.006
2023-05-18T00:58:40.168Z,7.996
2023-05-18T00:59:40.254Z,7.983
2023-05-18T01:00:41.217Z,7.920
2023-05-18T01:01:40.217Z,7.896
2023-05-18T01:02:40.939Z,7.893
2023-05-18T01:03:40.304Z,7.880
2023-05-18T01:04:40.190Z,7.888
2023-05-18T01:05:40.247Z,7.860
2023-05-18T01:06:39.975Z,7.846
2023-05-18T01:07:40.526Z,7.824
2023-05-18T01:08:40.215Z,7.801
2023-05-18T01:09:40.186Z,7.775
2023-05-18T01:10:40.042Z,7.828
2023-05-18T01:11:40.399Z,7.831
2023-05-18T01:12:40.243Z,7.809
2023-05-18T01:13:40.209Z,7.775
2023-05-18T01:14:40.405Z,7.776
2023-05-18T01:15:40.494Z,7.730
2023-05-18T01:16:40.423Z,7.713
2023-05-18T01:17:40.444Z,7.676
2023-05-18T01:18:40.448Z,7.688
2023-05-18T01:19:40.183Z,7.708
2023-05-18T01:20:40.331Z,7.703
2023-05-18T01:21:40.350Z,7.704
2023-05-18T01:22:40.184Z,7.691
2023-05-18T01:23:39.917Z,7.668
2023-05-18T01:24:40.715Z,7.676
2023-05-18T01:25:40.263Z,7.701
2023-05-18T01:26:40.493Z,7.646
2023-05-18T01:27:40.265Z,7.648
2023-05-18T01:28:40.026Z,7.676
2023-05-18T01:29:40.116Z,7.650
2023-05-18T01:30:40.621Z,7.585
2023-05-18T01:31:40.455Z,7.585
2023-05-18T01:32:40.584Z,7.573
2023-05-18T01:33:40.625Z,7.570
2023-05-18T01:34:40.784Z,7.561
2023-05-18T01:35:40.442Z,7.576
2023-05-18T01:36:40.148Z,7.585
2023-05-18T01:37:40.341Z,7.563
2023-05-18T01:38:41.675Z,7.528
2023-05-18T01:39:39.977Z,7.550
2023-05-18T01:40:40.667Z,7.550
2023-05-18T01:41:40.623Z,7.551
2023-05-18T01:42:40.389Z,7.546
2023-05-18T01:43:40.201Z,7.511
2023-05-18T01:44:39.843Z,7.505
2023-05-18T01:45:40.636Z,7.478
2023-05-18T01:46:40.755Z,7.451
2023-05-18T01:47:40.787Z,7.434
2023-05-18T01:48:40.507Z,7.421
2023-05-18T01:49:40.454Z,7.401
2023-05-18T01:50:40.487Z,7.405
2023-05-18T01:51:40.369Z,7.369
2023-05-18T01:52:39.956Z,7.368
2023-05-18T01:53:40.499Z,7.397
2023-05-18T01:54:40.266Z,7.388
2023-05-18T01:55:40.365Z,7.349
2023-05-18T01:56:40.272Z,7.347
2023-05-18T01:57:40.160Z,7.311
2023-05-18T01:58:40.235Z,7.277
2023-05-18T01:59:39.981Z,7.303
2023-05-18T02:00:40.652Z,7.307
2023-05-18T02:01:40.622Z,7.274
2023-05-18T02:02:40.702Z,7.257
2023-05-18T02:03:41.008Z,7.228
2023-05-18T02:04:40.084Z,7.182
2023-05-18T02:05:39.934Z,7.176
2023-05-18T02:06:40.938Z,7.191
2023-05-18T02:07:40.816Z,7.170
2023-05-18T02:08:40.521Z,7.162
2023-05-18T02:09:40.569Z,7.150
2023-05-18T02:10:40.676Z,7.133
2023-05-18T02:11:40.347Z,7.116
2023-05-18T02:12:40.000Z,7.123
2023-05-18T02:13:39.920Z,7.118
2023-05-18T02:14:40.664Z,7.130
2023-05-18T02:15:40.826Z,7.130
2023-05-18T02:16:40.804Z,7.136
2023-05-18T02:17:41.139Z,7.119
2023-05-18T02:18:40.485Z,7.094
2023-05-18T02:19:41.279Z,7.058
2023-05-18T02:20:40.721Z,7.054
2023-05-18T02:21:41.236Z,7.078
2023-05-18T02:22:40.448Z,7.076
2023-05-18T02:23:40.394Z,7.076
2023-05-18T02:24:40.128Z,7.061
2023-05-18T02:25:39.911Z,7.010
2023-05-18T02:26:40.688Z,7.030
2023-05-18T02:27:40.769Z,7.031
2023-05-18T02:28:40.560Z,7.006
2023-05-18T02:29:40.300Z,6.988
2023-05-18T02:30:40.518Z,6.963
2023-05-18T02:31:40.388Z,6.941
2023-05-18T02:32:40.299Z,6.911
2023-05-18T02:33:40.342Z,6.908
2023-05-18T02:34:40.524Z,6.888
2023-05-18T02:35:45.610Z,6.875
2023-05-18T02:36:40.880Z,6.880
2023-05-18T02:37:45.937Z,6.875
2023-05-18T02:38:40.686Z,6.885
2023-05-18T02:39:40.396Z,6.900
2023-05-18T02:40:40.722Z,6.908
2023-05-18T02:41:40.693Z,6.914
2023-05-18T02:42:40.587Z,6.906
2023-05-18T02:43:40.195Z,6.885
2023-05-18T02:44:39.949Z,6.856
2023-05-18T02:45:41.099Z,6.824
2023-05-18T02:46:40.575Z,6.791
2023-05-18T02:47:40.864Z,6.775
2023-05-18T02:48:40.913Z,6.771
2023-05-18T02:49:40.876Z,6.769
2023-05-18T02:50:41.136Z,6.773
2023-05-18T02:51:40.655Z,6.768
2023-05-18T02:52:40.846Z,6.760
2023-05-18T02:53:41.033Z,6.736
2023-05-18T02:54:40.289Z,6.724
2023-05-18T02:55:40.477Z,6.733
2023-05-18T02:56:40.500Z,6.716
2023-05-18T02:57:40.402Z,6.706
2023-05-18T02:58:40.284Z,6.699
2023-05-18T02:59:40.256Z,6.699
2023-05-18T03:00:41.515Z,6.683
2023-05-18T03:01:40.611Z,6.678
2023-05-18T03:02:40.685Z,6.661
2023-05-18T03:03:40.527Z,6.636
2023-05-18T03:04:40.504Z,6.628
2023-05-18T03:05:40.590Z,6.598
2023-05-18T03:06:40.601Z,6.578
2023-05-18T03:07:40.611Z,6.570
2023-05-18T03:08:40.574Z,6.571
2023-05-18T03:09:40.738Z,6.574
2023-05-18T03:10:40.796Z,6.588
2023-05-18T03:11:40.667Z,6.573
2023-05-18T03:12:40.481Z,6.550
2023-05-18T03:13:40.510Z,6.503
2023-05-18T03:14:40.628Z,6.510
2023-05-18T03:15:41.015Z,6.526
2023-05-18T03:16:39.910Z,6.541
2023-05-18T03:17:41.045Z,6.526
2023-05-18T03:18:39.976Z,6.494
2023-05-18T03:19:40.364Z,6.481
2023-05-18T03:20:40.411Z,6.446
2023-05-18T03:21:40.201Z,6.440
2023-05-18T03:22:40.088Z,6.401
2023-05-18T03:23:40.048Z,6.415
2023-05-18T03:24:40.160Z,6.415
2023-05-18T03:25:40.349Z,6.406
2023-05-18T03:26:40.261Z,6.395
2023-05-18T03:27:39.912Z,6.421
2023-05-18T03:28:40.728Z,6.435
2023-05-18T03:29:40.595Z,6.400
2023-05-18T03:30:40.785Z,6.387
2023-05-18T03:31:40.747Z,6.377
2023-05-18T03:32:40.785Z,6.397
2023-05-18T03:33:40.703Z,6.423
2023-05-18T03:34:40.756Z,6.424
2023-05-18T03:35:41.487Z,6.407
2023-05-18T03:36:40.308Z,6.384
2023-05-18T03:37:40.375Z,6.361
2023-05-18T03:38:40.219Z,6.328
2023-05-18T03:39:40.754Z,6.308
2023-05-18T03:40:41.317Z,6.337
2023-05-18T03:41:40.770Z,6.355
2023-05-18T03:42:40.427Z,6.321
2023-05-18T03:43:40.547Z,6.308
2023-05-18T03:44:40.584Z,6.300
2023-05-18T03:45:40.973Z,6.283
2023-05-18T03:46:41.153Z,6.313
2023-05-18T03:47:40.553Z,6.313
2023-05-18T03:48:40.661Z,6.301
2023-05-18T03:49:40.992Z,6.324
2023-05-18T03:50:40.048Z,6.323
2023-05-18T03:51:40.084Z,6.313
2023-05-18T03:52:40.337Z,6.316
2023-05-18T03:53:40.664Z,6.338
2023-05-18T03:54:40.850Z,6.335
2023-05-18T03:55:41.303Z,6.349
2023-05-18T03:56:40.599Z,6.328
2023-05-18T03:57:40.850Z,6.284
2023-05-18T03:58:40.872Z,6.269
2023-05-18T03:59:41.068Z,6.268
2023-05-18T04:00:41.354Z,6.269
2023-05-18T04:01:40.466Z,6.264
2023-05-18T04:02:40.956Z,6.263
2023-05-18T04:03:40.379Z,6.266
2023-05-18T04:04:40.684Z,6.263
2023-05-18T04:05:40.840Z,6.231
2023-05-18T04:06:40.927Z,6.255
2023-05-18T04:07:40.971Z,6.283
2023-05-18T04:08:41.050Z,6.286
2023-05-18T04:09:40.337Z,6.281
2023-05-18T04:10:40.660Z,6.251
2023-05-18T04:11:40.796Z,6.236
2023-05-18T04:12:40.754Z,6.235
2023-05-18T04:13:40.896Z,6.253
2023-05-18T04:14:40.837Z,6.264
2023-05-18T04:15:40.998Z,6.248
2023-05-18T04:16:40.231Z,6.239
2023-05-18T04:17:40.781Z,6.224
2023-05-18T04:18:41.082Z,6.226
2023-05-18T04:19:40.956Z,6.219
2023-05-18T04:20:41.194Z,6.206
2023-05-18T04:21:40.671Z,6.208
2023-05-18T04:22:40.855Z,6.208
2023-05-18T04:23:40.994Z,6.211
2023-05-18T04:24:40.478Z,6.198
2023-05-18T04:25:41.054Z,6.176
2023-05-18T04:26:40.356Z,6.181
2023-05-18T04:27:40.552Z,6.208
2023-05-18T04:28:40.736Z,6.248
2023-05-18T04:29:41.044Z,6.248
2023-05-18T04:30:40.809Z,6.231
2023-05-18T04:31:41.138Z,6.203
2023-05-18T04:32:40.705Z,6.186
2023-05-18T04:33:40.944Z,6.178
2023-05-18T04:34:41.614Z,6.163
2023-05-18T04:35:40.701Z,6.161
2023-05-18T04:36:41.046Z,6.168
2023-05-18T04:37:40.868Z,6.161
2023-05-18T04:38:41.208Z,6.155
2023-05-18T04:39:40.633Z,6.168
2023-05-18T04:40:41.004Z,6.153
2023-05-18T04:41:40.312Z,6.191
2023-05-18T04:42:40.809Z,6.233
2023-05-18T04:43:40.770Z,6.281
2023-05-18T04:44:41.016Z,6.318
2023-05-18T04:45:40.847Z,6.324
2023-05-18T04:46:41.293Z,6.326
2023-05-18T04:47:40.722Z,6.326
2023-05-18T04:48:41.050Z,6.318
2023-05-18T04:49:41.180Z,6.349
2023-05-18T04:50:40.911Z,6.378
2023-05-18T04:51:41.274Z,6.394
2023-05-18T04:52:40.886Z,6.427
2023-05-18T04:53:40.976Z,6.441
2023-05-18T04:54:41.221Z,6.471
2023-05-18T04:55:41.316Z,6.478
2023-05-18T04:56:41.403Z,6.489
2023-05-18T04:57:41.513Z,6.504
2023-05-18T04:59:00.261Z,6.480
2023-05-18T04:59:40.212Z,6.495
2023-05-18T05:00:42.071Z,6.515
2023-05-18T05:01:40.975Z,6.524
2023-05-18T05:02:40.618Z,6.525
2023-05-18T05:03:41.186Z,6.556
2023-05-18T05:04:41.105Z,6.555
2023-05-18T05:05:40.625Z,6.567
2023-05-18T05:06:40.621Z,6.579
2023-05-18T05:07:41.135Z,6.590
2023-05-18T05:08:40.328Z,6.601
2023-05-18T05:09:40.657Z,6.613
2023-05-18T05:10:41.048Z,6.641
2023-05-18T05:11:40.774Z,6.657
2023-05-18T05:12:41.105Z,6.686
2023-05-18T05:13:40.552Z,6.739
2023-05-18T05:14:40.945Z,6.758
2023-05-18T05:15:41.629Z,6.762
2023-05-18T05:16:40.926Z,6.766
2023-05-18T05:17:41.556Z,6.775
2023-05-18T05:18:54.925Z,6.821
2023-05-18T05:19:41.483Z,6.858
2023-05-18T05:20:40.912Z,6.900
2023-05-18T05:21:40.858Z,6.928
2023-05-18T05:22:41.268Z,6.940
2023-05-18T05:23:40.610Z,6.966
2023-05-18T05:24:40.926Z,7.011
2023-05-18T05:25:41.198Z,7.063
2023-05-18T05:26:40.623Z,7.081
2023-05-18T05:27:40.856Z,7.090
2023-05-18T05:28:40.978Z,7.105
2023-05-18T05:29:40.303Z,7.099
2023-05-18T05:30:41.165Z,7.119
2023-05-18T05:31:41.063Z,7.156
2023-05-18T05:32:40.733Z,7.173
2023-05-18T05:33:41.158Z,7.218
2023-05-18T05:34:40.779Z,7.239
2023-05-18T05:35:41.382Z,7.239
2023-05-18T05:36:40.940Z,7.261
2023-05-18T05:37:41.126Z,7.303
2023-05-18T05:38:40.510Z,7.283
2023-05-18T05:39:40.987Z,7.320
2023-05-18T05:40:40.725Z,7.356
2023-05-18T05:41:40.919Z,7.361
2023-05-18T05:42:41.411Z,7.394
2023-05-18T05:43:40.990Z,7.385
2023-05-18T05:44:40.346Z,7.366
2023-05-18T05:45:40.914Z,7.389
2023-05-18T05:46:41.395Z,7.420
2023-05-18T05:47:41.122Z,7.460
2023-05-18T05:48:40.457Z,7.471
2023-05-18T05:49:40.574Z,7.478
2023-05-18T05:50:41.242Z,7.478
2023-05-18T05:51:40.733Z,7.486
2023-05-18T05:52:41.070Z,7.513
2023-05-18T05:53:40.670Z,7.541
2023-05-18T05:54:41.014Z,7.570
2023-05-18T05:55:40.769Z,7.586
2023-05-18T05:56:40.922Z,7.603
2023-05-18T05:57:41.301Z,7.625
2023-05-18T05:58:41.135Z,7.646
2023-05-18T05:59:40.857Z,7.655
2023-05-18T06:00:42.537Z,7.633
2023-05-18T06:01:41.253Z,7.690
2023-05-18T06:02:41.008Z,7.690
2023-05-18T06:03:40.919Z,7.683
2023-05-18T06:04:40.515Z,7.718
2023-05-18T06:05:41.187Z,7.753
2023-05-18T06:06:40.680Z,7.778
2023-05-18T06:07:41.036Z,7.771
2023-05-18T06:08:40.798Z,7.796
2023-05-18T06:09:41.400Z,7.813
2023-05-18T06:10:41.104Z,7.856
2023-05-18T06:11:40.588Z,7.855
2023-05-18T06:12:40.860Z,7.881
2023-05-18T06:13:41.001Z,7.881
2023-05-18T06:14:40.729Z,7.921
2023-05-18T06:15:41.585Z,7.923
2023-05-18T06:16:41.315Z,7.941
2023-05-18T06:17:40.719Z,7.943
2023-05-18T06:18:41.183Z,7.965
2023-05-18T06:19:41.189Z,7.989
2023-05-18T06:20:40.889Z,8.018
2023-05-18T06:21:41.739Z,8.039
2023-05-18T06:22:41.468Z,8.056
2023-05-18T06:23:41.900Z,8.027
2023-05-18T06:24:40.696Z,8.038
2023-05-18T06:25:41.193Z,8.055
2023-05-18T06:26:40.984Z,8.050
2023-05-18T06:27:40.302Z,8.086
2023-05-18T06:28:40.723Z,8.114
2023-05-18T06:29:40.880Z,8.144
2023-05-18T06:30:41.548Z,8.142
2023-05-18T06:31:41.014Z,8.159
2023-05-18T06:32:40.961Z,8.177
2023-05-18T06:33:41.156Z,8.211
2023-05-18T06:34:41.200Z,8.238
2023-05-18T06:35:40.805Z,8.267
2023-05-18T06:36:41.129Z,8.261
2023-05-18T06:37:40.705Z,8.277
2023-05-18T06:38:41.184Z,8.281
2023-05-18T06:39:40.461Z,8.298
2023-05-18T06:40:40.954Z,8.311
2023-05-18T06:41:41.052Z,8.340
2023-05-18T06:42:40.659Z,8.363
2023-05-18T06:43:40.977Z,8.399
2023-05-18T06:44:41.157Z,8.408
2023-05-18T06:45:46.040Z,8.406
2023-05-18T06:46:40.620Z,8.411
2023-05-18T06:47:41.098Z,8.421
2023-05-18T06:48:40.623Z,8.460
2023-05-18T06:49:41.041Z,8.486
2023-05-18T06:50:40.434Z,8.495
2023-05-18T06:51:41.124Z,8.536
2023-05-18T06:52:43.223Z,8.564
2023-05-18T06:53:40.934Z,8.601
2023-05-18T06:54:41.279Z,8.649
2023-05-18T06:55:41.137Z,8.713
2023-05-18T06:56:40.497Z,8.753
2023-05-18T06:57:41.525Z,8.784
2023-05-18T06:58:41.442Z,8.813
2023-05-18T06:59:41.150Z,8.861
2023-05-18T07:00:42.030Z,8.864
2023-05-18T07:01:40.813Z,8.873
2023-05-18T07:02:41.400Z,8.890
2023-05-18T07:03:41.326Z,8.908
2023-05-18T07:04:41.057Z,8.961
2023-05-18T07:05:40.807Z,8.989
2023-05-18T07:06:41.100Z,9.011
2023-05-18T07:07:40.452Z,9.039
2023-05-18T07:08:40.785Z,9.093
2023-05-18T07:09:41.257Z,9.189
2023-05-18T07:10:41.132Z,9.266
2023-05-18T07:11:40.530Z,9.228
2023-05-18T07:12:41.115Z,9.178
2023-05-18T07:13:40.842Z,9.145
2023-05-18T07:14:41.485Z,9.141
2023-05-18T07:15:41.489Z,9.173
2023-05-18T07:16:41.513Z,9.228
2023-05-18T07:17:41.537Z,9.255
2023-05-18T07:18:41.236Z,9.271
2023-05-18T07:19:41.286Z,9.311
2023-05-18T07:20:42.778Z,9.361
2023-05-18T07:21:41.444Z,9.345
2023-05-18T07:22:41.266Z,9.336
2023-05-18T07:23:41.241Z,9.353
2023-05-18T07:24:41.136Z,9.395
2023-05-18T07:25:40.702Z,9.441
2023-05-18T07:26:40.912Z,9.486
2023-05-18T07:27:42.002Z,9.511
2023-05-18T07:28:41.423Z,9.534
2023-05-18T07:29:40.905Z,9.616
2023-05-18T07:30:41.995Z,9.653
2023-05-18T07:31:41.077Z,9.676
2023-05-18T07:32:40.737Z,9.715
2023-05-18T07:33:41.328Z,9.716
2023-05-18T07:34:40.785Z,9.678
2023-05-18T07:35:41.038Z,9.685
2023-05-18T07:36:40.562Z,9.681
2023-05-18T07:37:40.537Z,9.706
2023-05-18T07:38:40.863Z,9.768
2023-05-18T07:39:41.126Z,9.868
2023-05-18T07:40:40.604Z,9.994
2023-05-18T07:41:54.875Z,9.978
2023-05-18T07:42:41.147Z,9.939
2023-05-18T07:43:40.799Z,9.928
2023-05-18T07:44:40.984Z,9.923
2023-05-18T07:46:12.982Z,9.886
2023-05-18T07:46:46.795Z,9.864
2023-05-18T07:48:13.870Z,9.856
2023-05-18T07:48:46.914Z,9.906
2023-05-18T07:49:41.428Z,9.941
2023-05-18T07:50:41.314Z,9.978
2023-05-18T07:51:41.017Z,9.970
2023-05-18T07:52:40.935Z,10.01
2023-05-18T07:53:41.437Z,10.09
2023-05-18T07:54:40.888Z,10.14
2023-05-18T07:55:41.790Z,10.21
2023-05-18T07:56:40.987Z,10.24
2023-05-18T07:57:40.742Z,10.26
2023-05-18T07:58:40.965Z,10.29
2023-05-18T08:00:00.653Z,10.31
2023-05-18T08:00:41.380Z,10.32
2023-05-18T08:01:59.714Z,10.38
2023-05-18T08:02:41.628Z,10.40
2023-05-18T08:03:41.476Z,10.43
2023-05-18T08:04:41.221Z,10.5
2023-05-18T08:05:40.825Z,10.48
2023-05-18T08:06:41.586Z,10.33
2023-05-18T08:07:40.910Z,10.33
2023-05-18T08:08:41.523Z,10.45
2023-05-18T08:09:40.713Z,10.55
2023-05-18T08:10:41.215Z,10.66
2023-05-18T08:11:40.756Z,10.77
2023-05-18T08:12:41.320Z,10.87
2023-05-18T08:13:41.080Z,10.87
2023-05-18T08:14:40.845Z,10.86
2023-05-18T08:15:41.529Z,10.89
2023-05-18T08:16:41.331Z,10.90
2023-05-18T08:17:40.739Z,10.96
2023-05-18T08:18:41.420Z,10.97
2023-05-18T08:19:42.054Z,10.99
2023-05-18T08:20:40.852Z,10.89
2023-05-18T08:21:41.527Z,10.88
2023-05-18T08:22:41.093Z,10.85
2023-05-18T08:23:41.000Z,10.83
2023-05-18T08:24:40.618Z,10.81
2023-05-18T08:25:41.284Z,10.88
2023-05-18T08:26:40.985Z,10.88
2023-05-18T08:27:40.344Z,10.95
2023-05-18T08:28:40.576Z,11.03
2023-05-18T08:29:40.911Z,11.07
2023-05-18T08:30:41.569Z,11.14
2023-05-18T08:31:41.212Z,11.19
2023-05-18T08:32:40.678Z,11.15
2023-05-18T08:33:41.114Z,11.13
2023-05-18T08:34:40.637Z,11.18
2023-05-18T08:35:41.239Z,11.25
2023-05-18T08:36:40.708Z,11.30
2023-05-18T08:37:41.016Z,11.26
2023-05-18T08:38:40.760Z,11.24
2023-05-18T08:39:41.051Z,11.27
2023-05-18T08:40:40.673Z,11.31
2023-05-18T08:41:40.644Z,11.40
2023-05-18T08:42:50.925Z,11.45
2023-05-18T08:43:40.502Z,11.39
2023-05-18T08:44:40.682Z,11.40
2023-05-18T08:45:41.462Z,11.50
2023-05-18T08:46:40.907Z,11.52
2023-05-18T08:47:41.747Z,11.53
2023-05-18T08:48:44.551Z,11.56
2023-05-18T08:49:41.161Z,11.53
2023-05-18T08:50:40.789Z,11.56
2023-05-18T08:51:41.406Z,11.62
2023-05-18T08:52:41.294Z,11.65
2023-05-18T08:53:40.681Z,11.71
2023-05-18T08:54:41.068Z,11.72
2023-05-18T08:55:41.209Z,11.74
2023-05-18T08:56:40.952Z,11.69
2023-05-18T08:57:41.352Z,11.64
2023-05-18T08:58:41.328Z,11.72
2023-05-18T08:59:40.773Z,11.81
2023-05-18T09:00:42.164Z,11.85
2023-05-18T09:01:41.152Z,11.85
2023-05-18T09:02:40.925Z,11.93
2023-05-18T09:03:41.212Z,12.02
2023-05-18T09:04:40.861Z,12.12
2023-05-18T09:05:41.493Z,12.19
2023-05-18T09:06:40.904Z,12.25
2023-05-18T09:07:41.184Z,12.31
2023-05-18T09:08:45.630Z,12.41
2023-05-18T09:09:41.054Z,12.43
2023-05-18T09:10:40.714Z,12.44
2023-05-18T09:11:40.827Z,12.51
2023-05-18T09:12:41.208Z,12.52
2023-05-18T09:13:40.708Z,12.55
2023-05-18T09:14:41.326Z,12.58
2023-05-18T09:15:41.654Z,12.64
2023-05-18T09:16:41.200Z,12.71
2023-05-18T09:17:40.950Z,12.71
2023-05-18T09:18:44.480Z,12.81
2023-05-18T09:19:41.133Z,12.88
2023-05-18T09:20:41.100Z,12.87
2023-05-18T09:21:40.705Z,12.86
2023-05-18T09:22:41.034Z,12.74
2023-05-18T09:23:40.631Z,12.66
2023-05-18T09:24:48.973Z,12.76
2023-05-18T09:25:40.397Z,12.77
2023-05-18T09:26:40.628Z,12.79
2023-05-18T09:27:40.963Z,12.87
2023-05-18T09:28:55.570Z,12.87
2023-05-18T09:29:41.199Z,12.80
2023-05-18T09:30:41.221Z,12.83
2023-05-18T09:31:41.516Z,12.92
2023-05-18T09:32:55.142Z,12.91
2023-05-18T09:33:40.750Z,13.02
2023-05-18T09:34:55.664Z,13.12
2023-05-18T09:35:41.403Z,13.16
2023-05-18T09:36:41.199Z,13.23
2023-05-18T09:37:40.764Z,13.27
2023-05-18T09:38:41.191Z,13.32
2023-05-18T09:39:40.991Z,13.34
2023-05-18T09:40:40.808Z,13.38
2023-05-18T09:41:41.175Z,13.45
2023-05-18T09:42:59.649Z,13.52
2023-05-18T09:43:40.824Z,13.58
2023-05-18T09:44:41.124Z,13.60
2023-05-18T09:45:40.906Z,13.59
2023-05-18T09:46:41.478Z,13.59
2023-05-18T09:47:40.847Z,13.68
2023-05-18T09:48:41.489Z,13.69
2023-05-18T09:49:41.150Z,13.67
2023-05-18T09:50:45.823Z,13.64
2023-05-18T09:51:41.924Z,13.58
2023-05-18T09:52:41.497Z,13.41
2023-05-18T09:53:41.056Z,13.40
2023-05-18T09:54:40.641Z,13.42
2023-05-18T09:55:41.160Z,13.46
2023-05-18T09:56:40.921Z,13.47
2023-05-18T09:57:41.506Z,13.39
2023-05-18T09:58:40.969Z,13.37
2023-05-18T09:59:41.672Z,13.26
2023-05-18T10:00:42.776Z,13.20
2023-05-18T10:01:41.122Z,13.33
2023-05-18T10:03:12.992Z,13.39
2023-05-18T10:03:46.706Z,13.38
2023-05-18T10:04:41.950Z,13.37
2023-05-18T10:05:41.636Z,13.35
2023-05-18T10:06:49.833Z,13.30
2023-05-18T10:07:41.236Z,13.36
2023-05-18T10:08:40.659Z,13.38
2023-05-18T10:09:41.672Z,13.40
2023-05-18T10:10:41.593Z,13.39
2023-05-18T10:11:41.075Z,13.39
2023-05-18T10:12:40.605Z,13.41
2023-05-18T10:13:40.877Z,13.49
2023-05-18T10:14:41.542Z,13.56
2023-05-18T10:15:41.372Z,13.50
2023-05-18T10:16:41.216Z,13.42
2023-05-18T10:17:41.213Z,13.36
2023-05-18T10:18:41.275Z,13.40
2023-05-18T10:19:41.122Z,13.46
2023-05-18T10:20:41.177Z,13.56
2023-05-18T10:21:41.283Z,13.63
2023-05-18T10:22:40.788Z,13.66
2023-05-18T10:23:41.192Z,13.73
2023-05-18T10:24:40.934Z,13.78
2023-05-18T10:25:41.607Z,13.70
2023-05-18T10:26:41.306Z,13.61
2023-05-18T10:27:40.986Z,13.49
2023-05-18T10:28:40.889Z,13.56
2023-05-18T10:29:41.606Z,13.63
2023-05-18T10:30:41.659Z,13.66
2023-05-18T10:31:41.641Z,13.67
2023-05-18T10:32:41.561Z,13.63
2023-05-18T10:33:46.517Z,13.57
2023-05-18T10:34:41.955Z,13.48
2023-05-18T10:35:41.106Z,13.44
2023-05-18T10:36:41.371Z,13.48
2023-05-18T10:37:40.986Z,13.64
2023-05-18T10:38:40.939Z,13.68
2023-05-18T10:39:41.720Z,13.69
2023-05-18T10:40:41.665Z,13.67
2023-05-18T10:41:41.031Z,13.68
2023-05-18T10:42:40.883Z,13.65
2023-05-18T10:43:41.602Z,13.63
2023-05-18T10:44:41.119Z,13.60
2023-05-18T10:45:41.364Z,13.59
2023-05-18T10:46:41.281Z,13.59
2023-05-18T10:47:42.123Z,13.53
2023-05-18T10:48:41.165Z,13.48
2023-05-18T10:49:41.080Z,13.49
2023-05-18T10:50:42.057Z,13.54
2023-05-18T10:51:42.319Z,13.60
2023-05-18T10:52:42.157Z,13.61
2023-05-18T10:53:41.789Z,13.67
2023-05-18T10:54:41.967Z,13.70
2023-05-18T10:55:42.030Z,13.72
2023-05-18T10:56:40.977Z,13.73
2023-05-18T10:57:41.162Z,13.78
2023-05-18T10:58:40.961Z,13.85
2023-05-18T10:59:42.961Z,13.87
2023-05-18T11:00:41.884Z,13.92
2023-05-18T11:01:41.847Z,13.94
2023-05-18T11:02:41.739Z,13.94
2023-05-18T11:03:41.384Z,13.86
2023-05-18T11:04:41.208Z,13.84
2023-05-18T11:05:40.935Z,13.85
2023-05-18T11:06:41.667Z,13.91
2023-05-18T11:07:40.918Z,13.96
2023-05-18T11:08:41.382Z,14.05
2023-05-18T11:09:40.818Z,14.11
2023-05-18T11:10:41.887Z,14.15
2023-05-18T11:11:41.287Z,14.20
2023-05-18T11:12:41.094Z,14.22
2023-05-18T11:13:40.652Z,14.22
2023-05-18T11:14:41.183Z,14.26
2023-05-18T11:15:40.950Z,14.33
2023-05-18T11:16:41.777Z,14.34
2023-05-18T11:17:41.596Z,14.32
2023-05-18T11:18:41.673Z,14.20
2023-05-18T11:19:41.534Z,14.10
2023-05-18T11:20:41.537Z,14.10
2023-05-18T11:21:41.362Z,14.16
2023-05-18T11:22:41.286Z,14.18
2023-05-18T11:23:40.770Z,14.19
2023-05-18T11:24:41.648Z,14.17
2023-05-18T11:25:41.499Z,14.14
2023-05-18T11:26:41.324Z,14.14
2023-05-18T11:27:41.325Z,14.17
2023-05-18T11:28:41.116Z,14.19
2023-05-18T11:29:41.020Z,14.10
2023-05-18T11:30:41.124Z,14.01
2023-05-18T11:31:41.123Z,14.02
2023-05-18T11:32:46.740Z,14.09
2023-05-18T11:33:41.762Z,14.21
2023-05-18T11:34:41.710Z,14.23
2023-05-18T11:35:41.318Z,14.22
2023-05-18T11:36:40.910Z,14.21
2023-05-18T11:37:41.136Z,14.22
2023-05-18T11:38:40.991Z,14.17
2023-05-18T11:39:51.592Z,14.14
2023-05-18T11:40:41.203Z,14.18
2023-05-18T11:41:40.608Z,14.19
2023-05-18T11:42:41.210Z,14.22
2023-05-18T11:43:40.944Z,14.29
2023-05-18T11:44:41.303Z,14.30
2023-05-18T11:45:40.863Z,14.33
2023-05-18T11:46:41.868Z,14.35
2023-05-18T11:47:41.673Z,14.40
2023-05-18T11:48:41.474Z,14.43
2023-05-18T11:49:41.202Z,14.43
2023-05-18T11:50:40.822Z,14.47
2023-05-18T11:51:42.073Z,14.52
2023-05-18T11:52:40.888Z,14.53
2023-05-18T11:53:41.747Z,14.57
2023-05-18T11:54:41.499Z,14.56
2023-05-18T11:55:55.333Z,14.48
2023-05-18T11:56:40.950Z,14.38
2023-05-18T11:57:41.556Z,14.41
2023-05-18T11:58:41.082Z,14.47
2023-05-18T11:59:40.830Z,14.43
2023-05-18T12:00:42.428Z,14.38
2023-05-18T12:01:41.840Z,14.39
2023-05-18T12:02:42.815Z,14.45
2023-05-18T12:03:41.787Z,14.51
2023-05-18T12:04:41.675Z,14.55
2023-05-18T12:05:41.099Z,14.58
2023-05-18T12:06:40.834Z,14.61
2023-05-18T12:07:41.490Z,14.62
2023-05-18T12:08:41.058Z,14.64
2023-05-18T12:09:40.827Z,14.64
2023-05-18T12:10:41.179Z,14.64
2023-05-18T12:11:41.062Z,14.65
2023-05-18T12:12:40.782Z,14.62
2023-05-18T12:13:41.262Z,14.67
2023-05-18T12:14:41.060Z,14.70
2023-05-18T12:15:41.147Z,14.74
2023-05-18T12:16:41.186Z,14.84
2023-05-18T12:17:41.155Z,14.89
2023-05-18T12:18:40.786Z,14.96
2023-05-18T12:19:41.833Z,15.00
2023-05-18T12:20:41.746Z,15.07
2023-05-18T12:21:41.634Z,15.07
2023-05-18T12:22:41.146Z,14.96
2023-05-18T12:24:05.161Z,14.95
2023-05-18T12:24:42.854Z,14.99
2023-05-18T12:25:41.831Z,15.06
2023-05-18T12:26:41.504Z,15.09
2023-05-18T12:27:49.065Z,15.08
2023-05-18T12:28:40.351Z,15.11
2023-05-18T12:29:41.045Z,15.13
2023-05-18T12:30:40.923Z,15.12
2023-05-18T12:31:40.913Z,15.14
2023-05-18T12:32:41.527Z,15.13
2023-05-18T12:33:41.108Z,15.14
2023-05-18T12:34:40.926Z,15.13
2023-05-18T12:35:41.383Z,15.15
2023-05-18T12:36:40.700Z,15.15
2023-05-18T12:37:54.126Z,15.12
2023-05-18T12:38:40.471Z,15.06
2023-05-18T12:39:43.918Z,15.01
2023-05-18T12:40:41.311Z,15.01
2023-05-18T12:41:40.795Z,15.10
2023-05-18T12:42:41.093Z,15.23
2023-05-18T12:43:40.932Z,15.30
2023-05-18T12:44:41.713Z,15.32
2023-05-18T12:45:41.485Z,15.34
2023-05-18T12:46:41.513Z,15.29
2023-05-18T12:47:41.227Z,15.27
2023-05-18T12:48:40.903Z,15.28
2023-05-18T12:49:41.520Z,15.25
2023-05-18T12:50:41.360Z,15.25
2023-05-18T12:52:00.286Z,15.31
2023-05-18T12:52:40.291Z,15.32